createdAt,value
2022-10-23T00:02:22.591Z,20.33
2022-10-23T00:05:24.335Z,15.55
2022-10-23T00:08:26.222Z,14.73
2022-10-23T00:11:30.117Z,14.23
2022-10-23T00:14:31.991Z,24.67
2022-10-23T00:17:35.156Z,35.38
2022-10-23T00:20:36.967Z,38.70
2022-10-23T00:23:39.100Z,41.05
2022-10-23T00:26:41.887Z,26.05
2022-10-23T00:29:45.412Z,30.80
2022-10-23T00:35:49.049Z,31.92
2022-10-23T00:38:51.453Z,22.58
2022-10-23T00:41:53.176Z,25.80
2022-10-23T00:44:55.074Z,24.40
2022-10-23T00:47:57.198Z,24.65
2022-10-23T00:50:58.986Z,27.25
2022-10-23T00:54:22.833Z,23.85
2022-10-23T00:57:24.245Z,29.13
2022-10-23T01:00:41.025Z,25.23
2022-10-23T01:03:43.037Z,23.48
2022-10-23T01:07:08.599Z,21.73
2022-10-23T01:10:34.739Z,28.42
2022-10-23T01:13:47.502Z,22.42
2022-10-23T01:17:01.388Z,21.77
2022-10-23T01:20:24.016Z,23.35
2022-10-23T01:23:31.484Z,18.15
2022-10-23T01:26:52.647Z,25.33
2022-10-23T01:30:00.486Z,25.08
2022-10-23T01:33:05.904Z,28.23
2022-10-23T01:36:13.662Z,27.20
2022-10-23T01:39:23.449Z,31.70
2022-10-23T01:42:34.000Z,23.95
2022-10-23T01:45:43.511Z,20.83
2022-10-23T01:48:51.460Z,17.73
2022-10-23T01:51:57.610Z,15.65
2022-10-23T01:55:01.379Z,21.70
2022-10-23T01:58:04.652Z,13.15
2022-10-23T02:01:07.696Z,15.82
2022-10-23T02:04:13.441Z,10.27
2022-10-23T02:07:15.392Z,7.13
2022-10-23T02:10:18.331Z,12.98
2022-10-23T02:13:32.645Z,24.60
2022-10-23T02:16:46.444Z,18.63
2022-10-23T02:23:33.199Z,21.63
2022-10-23T02:26:40.799Z,54.50
2022-10-23T02:29:52.802Z,32.53
2022-10-23T02:32:55.631Z,42.35
2022-10-23T02:35:57.902Z,50.10
2022-10-23T02:38:59.856Z,35.72
2022-10-23T02:42:32.148Z,76.05
2022-10-23T02:48:54.774Z,16.25
2022-10-23T02:52:11.964Z,29.13
2022-10-23T02:55:25.056Z,35.55
2022-10-23T02:58:54.798Z,28.13
2022-10-23T03:02:05.890Z,37.58
2022-10-23T03:05:12.939Z,30.85
2022-10-23T03:08:15.467Z,32.10
2022-10-23T03:11:17.243Z,34.23
2022-10-23T03:14:19.640Z,28.33
2022-10-23T03:17:21.373Z,20.92
2022-10-23T03:20:23.347Z,24.95
2022-10-23T03:23:25.120Z,28.40
2022-10-23T03:26:27.329Z,19.65
2022-10-23T03:29:28.999Z,28.60
2022-10-23T03:32:30.850Z,22.48
2022-10-23T03:35:32.916Z,19.83
2022-10-23T03:38:34.769Z,17.33
2022-10-23T03:41:36.680Z,23.92
2022-10-23T03:44:38.423Z,16.08
2022-10-23T03:47:41.608Z,12.80
2022-10-23T03:53:45.246Z,14.02
2022-10-23T03:56:46.993Z,12.13
2022-10-23T03:59:48.704Z,13.68
2022-10-23T04:02:50.461Z,10.88
2022-10-23T04:05:52.573Z,10.57
2022-10-23T04:08:54.574Z,8.98
2022-10-23T04:11:57.116Z,8.35
2022-10-23T04:14:58.865Z,14.40
2022-10-23T04:18:00.551Z,10.73
2022-10-23T04:21:02.340Z,12.98
2022-10-23T04:24:04.574Z,10.65
2022-10-23T04:27:06.914Z,11.00
2022-10-23T04:30:09.646Z,9.48
2022-10-23T04:33:11.569Z,9.60
2022-10-23T04:36:13.344Z,7.85
2022-10-23T04:39:15.111Z,10.93
2022-10-23T04:42:16.814Z,7.22
2022-10-23T04:45:18.648Z,11.23
2022-10-23T04:48:20.369Z,7.25
2022-10-23T04:51:22.380Z,8.60
2022-10-23T04:54:24.206Z,13.70
2022-10-23T04:57:26.223Z,14.63
2022-10-23T05:00:28.065Z,12.25
2022-10-23T05:03:29.843Z,12.50
2022-10-23T05:06:31.853Z,11.82
2022-10-23T05:09:33.908Z,18.42
2022-10-23T05:12:35.825Z,23.20
2022-10-23T05:15:37.762Z,27.60
2022-10-23T05:18:46.678Z,26.73
2022-10-23T05:21:55.627Z,36.80
2022-10-23T05:24:58.918Z,27.75
2022-10-23T05:28:00.805Z,24.55
2022-10-23T05:31:05.103Z,20.50
2022-10-23T05:34:09.902Z,12.45
2022-10-23T05:37:15.360Z,18.23
2022-10-23T05:40:18.128Z,9.68
2022-10-23T05:43:20.391Z,10.20
2022-10-23T05:46:23.246Z,8.38
2022-10-23T05:49:25.958Z,16.00
2022-10-23T05:52:27.722Z,8.57
2022-10-23T05:55:29.569Z,7.78
2022-10-23T05:58:31.557Z,12.70
2022-10-23T06:01:33.377Z,13.80
2022-10-23T06:04:36.124Z,19.20
2022-10-23T06:07:38.091Z,12.20
2022-10-23T06:10:39.957Z,10.20
2022-10-23T06:13:45.514Z,11.10
2022-10-23T06:16:47.480Z,8.98
2022-10-23T06:19:49.746Z,8.10
2022-10-23T06:22:51.469Z,13.73
2022-10-23T06:25:55.803Z,16.67
2022-10-23T06:28:57.877Z,10.95
2022-10-23T06:31:59.551Z,9.13
2022-10-23T06:35:01.503Z,8.88
2022-10-23T06:38:03.402Z,13.93
2022-10-23T06:41:06.357Z,11.70
2022-10-23T06:44:10.163Z,8.73
2022-10-23T06:47:14.280Z,12.07
2022-10-23T06:50:16.182Z,21.30
2022-10-23T06:53:17.851Z,17.52
2022-10-23T06:56:19.564Z,62.78
2022-10-23T06:59:21.371Z,40.22
2022-10-23T07:02:23.202Z,49.85
2022-10-23T07:05:25.084Z,50.28
2022-10-23T07:08:26.888Z,45.58
2022-10-23T07:11:28.909Z,40.50
2022-10-23T07:14:32.345Z,42.35
2022-10-23T07:20:35.903Z,27.02
2022-10-23T07:23:37.979Z,20.77
2022-10-23T07:26:41.667Z,14.50
2022-10-23T07:29:43.553Z,12.05
2022-10-23T07:32:45.268Z,4.57
2022-10-23T07:35:47.572Z,4.05
2022-10-23T07:38:50.358Z,3.78
2022-10-23T07:41:52.184Z,3.45
2022-10-23T07:44:53.858Z,2.58
2022-10-23T07:47:55.574Z,2.95
2022-10-23T07:51:01.716Z,5.20
2022-10-23T07:54:03.733Z,3.70
2022-10-23T07:57:07.356Z,4.53
2022-10-23T08:00:11.115Z,4.32
2022-10-23T08:03:13.104Z,3.25
2022-10-23T08:06:14.900Z,2.40
2022-10-23T08:09:16.583Z,3.20
2022-10-23T08:12:18.299Z,5.95
2022-10-23T08:15:19.983Z,5.03
2022-10-23T08:18:21.794Z,1.73
2022-10-23T08:21:24.067Z,7.22
2022-10-23T08:24:25.767Z,4.40
2022-10-23T08:27:28.479Z,5.50
2022-10-23T08:30:30.342Z,3.72
2022-10-23T08:33:32.461Z,6.18
2022-10-23T08:36:36.412Z,5.60
2022-10-23T08:39:38.337Z,2.75
2022-10-23T08:42:42.188Z,6.13
2022-10-23T08:46:03.357Z,7.53
2022-10-23T08:49:47.107Z,5.40
2022-10-23T08:53:09.203Z,7.60
2022-10-23T08:56:34.757Z,9.13
2022-10-23T08:59:54.350Z,4.40
2022-10-23T09:02:57.018Z,4.53
2022-10-23T09:06:30.356Z,4.45
2022-10-23T09:09:55.032Z,2.77
2022-10-23T09:13:15.333Z,2.85
2022-10-23T09:16:38.498Z,5.97
2022-10-23T09:19:40.331Z,5.63
2022-10-23T09:22:44.221Z,6.53
2022-10-23T09:25:48.578Z,2.90
2022-10-23T09:28:55.212Z,5.03
2022-10-23T09:32:00.023Z,5.63
2022-10-23T09:35:02.348Z,5.53
2022-10-23T09:38:04.690Z,5.25
2022-10-23T09:41:13.236Z,3.83
2022-10-23T09:44:26.109Z,6.50
2022-10-23T09:47:28.661Z,6.90
2022-10-23T09:50:30.550Z,5.70
2022-10-23T09:53:33.920Z,5.57
2022-10-23T09:59:42.827Z,7.03
2022-10-23T10:02:56.728Z,2.65
2022-10-23T10:06:01.728Z,5.85
2022-10-23T10:09:08.836Z,6.03
2022-10-23T10:12:22.560Z,5.22
2022-10-23T10:15:52.860Z,9.30
2022-10-23T10:19:07.372Z,6.70
2022-10-23T10:22:35.354Z,8.55
2022-10-23T10:25:43.240Z,4.55
2022-10-23T10:29:29.857Z,6.85
2022-10-23T10:32:54.535Z,3.85
2022-10-23T10:36:12.850Z,5.20
2022-10-23T10:39:37.912Z,4.65
2022-10-23T10:42:56.203Z,4.22
2022-10-23T10:46:07.172Z,10.13
2022-10-23T10:49:13.955Z,3.65
2022-10-23T10:52:49.359Z,6.82
2022-10-23T10:55:56.829Z,4.93
2022-10-23T10:59:03.688Z,4.38
2022-10-23T11:02:26.429Z,5.97
2022-10-23T11:05:34.610Z,7.47
2022-10-23T11:08:50.063Z,7.53
2022-10-23T11:12:00.148Z,7.43
2022-10-23T11:15:02.189Z,6.50
2022-10-23T11:18:12.944Z,6.60
2022-10-23T11:21:44.282Z,6.10
2022-10-23T11:24:53.402Z,4.78
2022-10-23T11:28:27.346Z,4.40
2022-10-23T11:32:07.449Z,6.65
2022-10-23T11:35:30.923Z,4.60
2022-10-23T11:38:36.624Z,7.00
2022-10-23T11:41:52.742Z,5.60
2022-10-23T11:44:55.192Z,6.72
2022-10-23T11:48:04.059Z,2.35
2022-10-23T11:51:25.661Z,3.83
2022-10-23T11:54:27.953Z,4.43
2022-10-23T12:00:39.861Z,4.65
2022-10-23T12:03:52.399Z,7.82
2022-10-23T12:07:04.843Z,3.88
2022-10-23T12:10:23.676Z,8.00
2022-10-23T12:13:37.795Z,8.38
2022-10-23T12:16:39.526Z,6.05
2022-10-23T12:19:48.442Z,3.28
2022-10-23T12:23:11.263Z,6.15
2022-10-23T12:26:54.449Z,8.10
2022-10-23T12:30:14.337Z,7.80
2022-10-23T12:33:21.933Z,4.68
2022-10-23T12:36:47.492Z,9.38
2022-10-23T12:39:55.062Z,5.63
2022-10-23T12:42:59.348Z,9.48
2022-10-23T12:46:17.813Z,5.45
2022-10-23T12:49:22.957Z,8.38
2022-10-23T12:52:25.347Z,4.95
2022-10-23T12:55:32.198Z,6.10
2022-10-23T12:58:38.081Z,3.05
2022-10-23T13:01:43.277Z,7.50
2022-10-23T13:04:45.838Z,6.47
2022-10-23T13:07:49.363Z,6.40
2022-10-23T13:10:51.433Z,4.00
2022-10-23T13:13:53.753Z,5.63
2022-10-23T13:17:04.072Z,6.78
2022-10-23T13:20:36.741Z,3.40
2022-10-23T13:23:41.904Z,6.65
2022-10-23T13:26:45.345Z,6.85
2022-10-23T13:29:48.030Z,5.05
2022-10-23T13:32:49.771Z,3.60
2022-10-23T13:36:28.597Z,7.10
2022-10-23T13:39:34.072Z,7.28
2022-10-23T13:42:36.465Z,4.90
2022-10-23T13:45:41.070Z,8.25
2022-10-23T13:48:43.350Z,4.60
2022-10-23T13:51:49.875Z,6.93
2022-10-23T13:54:51.993Z,4.18
2022-10-23T13:57:53.728Z,4.68
2022-10-23T14:00:55.934Z,3.80
2022-10-23T14:03:58.920Z,4.20
2022-10-23T14:07:00.907Z,4.32
2022-10-23T14:10:03.111Z,3.63
2022-10-23T14:13:05.116Z,6.95
2022-10-23T14:16:08.218Z,4.65
2022-10-23T14:19:11.519Z,6.75
2022-10-23T14:22:13.436Z,4.82
2022-10-23T14:25:15.499Z,7.85
2022-10-23T14:28:17.693Z,5.93
2022-10-23T14:31:19.698Z,5.85
2022-10-23T14:34:21.627Z,5.30
2022-10-23T14:37:23.379Z,5.78
2022-10-23T14:40:25.450Z,4.32
2022-10-23T14:43:27.373Z,4.63
2022-10-23T14:46:29.523Z,2.95
2022-10-23T14:49:31.828Z,4.03
2022-10-23T14:52:33.800Z,5.15
2022-10-23T14:55:35.750Z,7.25
2022-10-23T14:58:37.856Z,6.70
2022-10-23T15:01:45.545Z,6.88
2022-10-23T15:04:49.858Z,7.50
2022-10-23T15:07:51.614Z,5.63
2022-10-23T15:10:53.345Z,5.45
2022-10-23T15:13:55.492Z,4.43
2022-10-23T15:16:57.420Z,7.78
2022-10-23T15:19:59.704Z,6.65
2022-10-23T15:23:02.910Z,5.55
2022-10-23T15:26:08.787Z,4.38
2022-10-23T15:29:12.291Z,7.95
2022-10-23T15:32:16.054Z,5.13
2022-10-23T15:35:18.040Z,7.90
2022-10-23T15:38:20.489Z,3.63
2022-10-23T15:41:33.579Z,7.13
2022-10-23T15:44:35.322Z,9.52
2022-10-23T15:47:37.167Z,8.55
2022-10-23T15:50:38.875Z,13.68
2022-10-23T15:53:40.895Z,7.85
2022-10-23T15:56:43.897Z,7.22
2022-10-23T15:59:45.664Z,5.70
2022-10-23T16:02:47.614Z,6.25
2022-10-23T16:05:49.703Z,9.50
2022-10-23T16:08:51.815Z,4.88
2022-10-23T16:11:53.862Z,7.25
2022-10-23T16:14:55.590Z,6.55
2022-10-23T16:17:57.276Z,10.25
2022-10-23T16:20:58.986Z,6.68
2022-10-23T16:24:02.315Z,9.70
2022-10-23T16:27:05.069Z,8.70
2022-10-23T16:30:09.350Z,8.68
2022-10-23T16:33:11.258Z,7.40
2022-10-23T16:36:13.023Z,8.68
2022-10-23T16:39:16.846Z,7.80
2022-10-23T16:45:25.432Z,6.55
2022-10-23T16:48:27.425Z,6.85
2022-10-23T16:51:31.611Z,9.27
2022-10-23T16:54:33.364Z,4.82
2022-10-23T16:57:36.471Z,7.18
2022-10-23T17:00:38.427Z,9.88
2022-10-23T17:03:43.380Z,10.07
2022-10-23T17:06:45.198Z,9.52
2022-10-23T17:09:47.233Z,5.75
2022-10-23T17:12:49.975Z,6.03
2022-10-23T17:15:51.943Z,5.22
2022-10-23T17:18:54.039Z,5.45
2022-10-23T17:21:56.318Z,5.78
2022-10-23T17:24:59.140Z,6.50
2022-10-23T17:28:01.385Z,5.13
2022-10-23T17:31:03.170Z,5.20
2022-10-23T17:34:07.532Z,4.03
2022-10-23T17:37:10.298Z,5.47
2022-10-23T17:40:12.493Z,5.72
2022-10-23T17:43:15.467Z,4.18
2022-10-23T17:46:18.666Z,8.07
2022-10-23T17:49:21.231Z,4.38
2022-10-23T17:52:23.033Z,3.03
2022-10-23T17:55:24.723Z,4.88
2022-10-23T17:58:26.493Z,3.85
2022-10-23T18:01:29.897Z,5.28
2022-10-23T18:07:33.464Z,7.30
2022-10-23T18:10:36.199Z,7.50
2022-10-23T18:13:38.088Z,4.07
2022-10-23T18:16:40.813Z,4.82
2022-10-23T18:19:45.873Z,5.40
2022-10-23T18:22:47.640Z,7.05
2022-10-23T18:25:49.835Z,4.43
2022-10-23T18:28:56.950Z,5.82
2022-10-23T18:31:58.961Z,7.68
2022-10-23T18:35:00.853Z,4.53
2022-10-23T18:38:04.143Z,6.63
2022-10-23T18:41:06.147Z,4.93
2022-10-23T18:44:09.346Z,8.50
2022-10-23T18:47:11.366Z,3.53
2022-10-23T18:50:13.230Z,5.35
2022-10-23T18:53:14.936Z,6.32
2022-10-23T18:56:22.551Z,7.18
2022-10-23T18:59:24.476Z,5.32
2022-10-23T19:02:26.644Z,6.43
2022-10-23T19:05:28.758Z,5.40
2022-10-23T19:08:30.664Z,5.63
2022-10-23T19:11:32.491Z,4.55
2022-10-23T19:14:34.186Z,4.93
2022-10-23T19:17:36.993Z,7.22
2022-10-23T19:20:41.397Z,8.43
2022-10-23T19:23:43.806Z,5.85
2022-10-23T19:30:12.905Z,8.10
2022-10-23T19:33:14.664Z,10.20
2022-10-23T19:36:18.605Z,9.35
2022-10-23T19:39:23.009Z,6.53
2022-10-23T19:42:24.771Z,4.57
2022-10-23T19:45:27.138Z,8.43
2022-10-23T19:48:28.914Z,7.50
2022-10-23T19:51:30.963Z,6.03
2022-10-23T19:54:32.922Z,6.45
2022-10-23T19:57:35.540Z,4.75
2022-10-23T20:00:37.611Z,7.10
2022-10-23T20:03:41.414Z,9.20
2022-10-23T20:06:43.261Z,8.10
2022-10-23T20:09:44.987Z,6.28
2022-10-23T20:12:56.450Z,6.65
2022-10-23T20:16:04.335Z,5.35
2022-10-23T20:19:08.727Z,8.15
2022-10-23T20:22:10.842Z,6.80
2022-10-23T20:25:12.962Z,7.40
2022-10-23T20:28:15.416Z,7.65
2022-10-23T20:31:18.941Z,8.73
2022-10-23T20:37:22.828Z,5.78
2022-10-23T20:40:24.795Z,11.52
2022-10-23T20:43:27.644Z,8.60
2022-10-23T20:46:29.576Z,4.53
2022-10-23T20:49:31.842Z,8.02
2022-10-23T20:55:43.741Z,5.72
2022-10-23T20:58:46.029Z,6.35
2022-10-23T21:01:50.003Z,6.78
2022-10-23T21:04:51.974Z,8.52
2022-10-23T21:07:53.754Z,8.32
2022-10-23T21:10:55.474Z,5.32
2022-10-23T21:13:59.837Z,5.75
2022-10-23T21:17:02.091Z,10.50
2022-10-23T21:20:04.169Z,7.95
2022-10-23T21:23:05.895Z,6.35
2022-10-23T21:26:07.949Z,6.38
2022-10-23T21:29:18.998Z,6.68
2022-10-23T21:32:21.610Z,5.60
2022-10-23T21:35:25.386Z,6.22
2022-10-23T21:38:29.773Z,7.53
2022-10-23T21:41:34.171Z,9.05
2022-10-23T21:44:36.002Z,6.70
2022-10-23T21:47:38.286Z,9.90
2022-10-23T21:50:40.266Z,8.95
2022-10-23T21:53:42.009Z,8.43
2022-10-23T21:56:46.963Z,8.23
2022-10-23T21:59:48.970Z,8.07
2022-10-23T22:02:53.092Z,8.60
2022-10-23T22:05:58.787Z,8.63
2022-10-23T22:09:01.076Z,5.20
2022-10-23T22:12:02.875Z,5.03
2022-10-23T22:15:05.183Z,7.82
2022-10-23T22:18:06.940Z,7.22
2022-10-23T22:21:15.391Z,10.90
2022-10-23T22:24:20.100Z,6.00
2022-10-23T22:27:21.884Z,6.35
2022-10-23T22:30:24.393Z,7.13
2022-10-23T22:33:26.274Z,8.85
2022-10-23T22:36:28.149Z,6.75
2022-10-23T22:39:29.901Z,6.85
2022-10-23T22:42:31.585Z,9.15
2022-10-23T22:45:33.710Z,9.80
2022-10-23T22:48:36.217Z,9.95
2022-10-23T22:51:39.625Z,9.43
2022-10-23T22:54:41.322Z,8.13
2022-10-23T22:57:43.332Z,14.02
2022-10-23T23:00:45.659Z,10.65
2022-10-23T23:03:48.516Z,6.78
2022-10-23T23:06:50.546Z,5.72
2022-10-23T23:09:52.300Z,6.18
2022-10-23T23:12:54.085Z,4.15
2022-10-23T23:15:56.142Z,8.90
2022-10-23T23:19:02.826Z,7.63
2022-10-23T23:22:04.758Z,9.63
2022-10-23T23:25:08.186Z,10.23
2022-10-23T23:31:18.783Z,8.52
2022-10-23T23:34:20.605Z,6.68
2022-10-23T23:37:22.582Z,10.65
2022-10-23T23:40:24.493Z,5.45
2022-10-23T23:43:26.309Z,6.65
2022-10-23T23:46:28.219Z,8.38
2022-10-23T23:49:29.962Z,6.50
2022-10-23T23:52:31.825Z,5.15
2022-10-23T23:55:33.669Z,8.65
2022-10-23T23:58:35.803Z,6.43
